Time;durP1;ratioP1;P1;durP2;ratioP2;P2;SDS_P1;SDS_P2;PMS_P1;PMS_P2;Temp;Humidity;BMP_temperature;BMP_pressure;BME280_temperature;BME280_humidity;BME280_pressure;Samples;Min_cycle;Max_cycle;Signal;HPM_P1;HPM_P2
2021/05/19 00:00:47;;;;;;;8.15;3.77;;;;;;;10.61;93.20;99687.98;1746079;80;25608;-71
2021/05/19 00:03:12;;;;;;;7.55;3.60;;;;;;;10.61;93.05;99685.38;1748752;80;25538;-70
2021/05/19 00:05:40;;;;;;;5.45;3.10;;;;;;;10.63;93.23;99689.44;1749893;80;35071;-73
2021/05/19 00:08:07;;;;;;;5.62;3.33;;;;;;;10.61;93.15;99686.69;1750344;80;25575;-73
2021/05/19 00:10:35;;;;;;;5.05;2.98;;;;;;;10.62;93.14;99690.94;1750769;80;25973;-73
2021/05/19 00:13:01;;;;;;;7.47;3.25;;;;;;;10.59;93.58;99684.27;1752556;80;25141;-72
2021/05/19 00:15:27;;;;;;;6.72;3.95;;;;;;;10.58;93.39;99690.47;1752400;80;25684;-69
2021/05/19 00:17:53;;;;;;;5.67;3.22;;;;;;;10.58;93.44;99684.44;1754506;80;34701;-70
2021/05/19 00:20:20;;;;;;;6.40;3.90;;;;;;;10.60;93.65;99684.58;1755391;79;32251;-72
2021/05/19 00:22:47;;;;;;;5.50;3.40;;;;;;;10.62;93.77;99687.83;1750968;80;25522;-72
2021/05/19 00:25:14;;;;;;;5.87;3.75;;;;;;;10.61;93.58;99685.38;1745307;80;26536;-71
2021/05/19 00:27:40;;;;;;;5.60;3.33;;;;;;;10.62;93.71;99688.33;1754046;80;25477;-72
2021/05/19 00:30:07;;;;;;;6.40;3.67;;;;;;;10.62;93.78;99689.13;1757531;80;34688;-70
2021/05/19 00:32:33;;;;;;;6.90;3.72;;;;;;;10.62;93.72;99689.13;1748599;80;25695;-70
2021/05/19 00:34:58;;;;;;;6.40;3.73;;;;;;;10.63;94.03;99688.63;1748784;80;25324;-72
2021/05/19 00:37:24;;;;;;;7.50;4.23;;;;;;;10.63;93.71;99688.13;1756700;80;28310;-71
2021/05/19 00:39:50;;;;;;;6.30;4.07;;;;;;;10.66;93.81;99683.03;1733265;80;25611;-69
2021/05/19 00:42:16;;;;;;;6.58;4.25;;;;;;;10.63;94.09;99685.52;1748957;80;34744;-71
2021/05/19 00:44:43;;;;;;;7.60;4.35;;;;;;;10.62;94.10;99688.33;1751446;80;25499;-71
2021/05/19 00:47:09;;;;;;;5.22;3.92;;;;;;;10.62;94.09;99692.24;1756817;79;26871;-72
2021/05/19 00:49:35;;;;;;;5.20;4.05;;;;;;;10.63;94.13;99691.23;1758996;80;25639;-72
2021/05/19 00:52:01;;;;;;;4.62;3.42;;;;;;;10.62;94.47;99689.63;1746308;80;25578;-72
2021/05/19 00:54:28;;;;;;;7.92;4.20;;;;;;;10.60;94.33;99693.72;1752400;80;34744;-72
2021/05/19 00:56:54;;;;;;;6.37;3.90;;;;;;;10.61;94.25;99690.60;1753856;80;25580;-72
2021/05/19 00:59:20;;;;;;;5.53;3.63;;;;;;;10.60;94.25;99685.88;1749765;80;25568;-70
2021/05/19 01:01:48;;;;;;;6.03;4.00;;;;;;;10.61;94.02;99688.83;1748290;80;26447;-70
2021/05/19 01:04:16;;;;;;;7.72;4.12;;;;;;;10.59;94.15;99685.58;1751448;80;26374;-72
2021/05/19 01:06:58;;;;;;;6.28;4.25;;;;;;;10.59;94.37;99688.69;1679695;80;26286;-71
2021/05/19 01:09:41;;;;;;;6.92;4.70;;;;;;;10.59;94.21;99687.38;1748226;79;25749;-71
2021/05/19 01:11:48;;;;;;;7.87;4.75;;;;;;;10.59;94.52;99694.72;1756083;78;26014;-71
2021/05/19 01:14:13;;;;;;;7.23;4.80;;;;;;;10.59;94.22;99693.41;1747825;80;25681;-72
2021/05/19 01:16:39;;;;;;;6.37;4.63;;;;;;;10.59;94.34;99690.00;1752090;80;28195;-73
2021/05/19 01:19:06;;;;;;;7.20;4.33;;;;;;;10.59;94.37;99694.72;1750556;80;34661;-73
2021/05/19 01:21:34;;;;;;;5.60;4.30;;;;;;;10.60;94.26;99698.14;1756671;80;25579;-73
2021/05/19 01:24:05;;;;;;;7.05;4.47;;;;;;;10.57;94.47;99694.59;1751705;80;25637;-72
2021/05/19 01:26:31;;;;;;;5.37;4.55;;;;;;;10.57;94.22;99693.28;1750320;79;25466;-73
2021/05/19 01:28:57;;;;;;;6.95;4.70;;;;;;;10.58;94.26;99697.00;1749750;80;25503;-73
2021/05/19 01:31:22;;;;;;;8.05;4.53;;;;;;;10.61;94.39;99697.14;1749911;80;34771;-73
2021/05/19 01:33:49;;;;;;;6.75;4.08;;;;;;;10.59;94.19;99697.33;1751150;80;32045;-73
2021/05/19 01:36:18;;;;;;;6.20;4.03;;;;;;;10.58;94.04;99697.50;1749379;80;25847;-71
2021/05/19 01:38:44;;;;;;;6.33;3.95;;;;;;;10.59;94.10;99697.84;1750469;80;25618;-73
2021/05/19 01:41:11;;;;;;;6.35;3.98;;;;;;;10.56;93.95;99695.09;1757433;80;25497;-73
2021/05/19 01:43:39;;;;;;;4.90;3.50;;;;;;;10.57;93.87;99701.13;1749886;80;26312;-72
2021/05/19 01:46:07;;;;;;;4.17;2.60;;;;;;;10.55;94.08;99697.37;1754782;79;25511;-74
2021/05/19 01:48:35;;;;;;;3.90;3.02;;;;;;;10.54;93.76;99697.56;1752189;80;25703;-73
2021/05/19 01:51:04;;;;;;;4.67;2.98;;;;;;;10.52;94.00;99702.16;1758557;80;25508;-72
2021/05/19 01:53:33;;;;;;;5.42;3.10;;;;;;;10.52;94.07;99703.46;1755543;80;25460;-71
2021/05/19 01:56:01;;;;;;;5.15;2.92;;;;;;;10.48;93.82;99695.69;1750985;80;26542;-73
2021/05/19 01:58:29;;;;;;;4.97;3.20;;;;;;;10.48;93.77;99707.44;1747522;80;25587;-71
2021/05/19 02:00:56;;;;;;;3.95;2.83;;;;;;;10.46;93.71;99702.88;1749534;80;25666;-71
2021/05/19 02:03:24;;;;;;;7.22;3.20;;;;;;;10.46;93.65;99702.88;1750281;80;25426;-71
2021/05/19 02:05:58;;;;;;;4.12;2.98;;;;;;;10.46;93.74;99705.50;1755501;79;25158;-71
2021/05/19 02:08:25;;;;;;;4.05;2.72;;;;;;;10.42;93.65;99708.47;1751936;80;26417;-73
2021/05/19 02:10:51;;;;;;;4.17;2.73;;;;;;;10.42;93.81;99705.86;1750155;80;30638;-73
2021/05/19 02:13:19;;;;;;;5.50;2.85;;;;;;;10.42;93.60;99706.33;1750001;80;25523;-71
2021/05/19 02:15:45;;;;;;;4.40;2.80;;;;;;;10.43;93.70;99709.28;1752275;80;25624;-71
2021/05/19 02:18:13;;;;;;;4.25;2.92;;;;;;;10.41;93.61;99712.56;1748458;80;25528;-72
2021/05/19 02:20:39;;;;;;;6.92;3.17;;;;;;;10.42;93.72;99714.17;1754712;80;26188;-73
2021/05/19 02:23:05;;;;;;;3.47;2.60;;;;;;;10.40;93.44;99710.95;1752081;80;25398;-71
2021/05/19 02:25:31;;;;;;;5.30;2.83;;;;;;;10.41;93.52;99717.28;1758291;80;25551;-71
2021/05/19 02:27:58;;;;;;;4.72;2.90;;;;;;;10.40;93.47;99722.70;1719092;80;26017;-71
2021/05/19 02:30:26;;;;;;;4.30;2.90;;;;;;;10.40;93.42;99723.51;1750487;78;25695;-73
2021/05/19 02:32:52;;;;;;;4.42;2.85;;;;;;;10.36;93.49;99714.89;1752645;80;26346;-74
2021/05/19 02:35:19;;;;;;;3.33;2.83;;;;;;;10.35;93.87;99720.63;1753849;80;25502;-73
2021/05/19 02:37:47;;;;;;;4.92;3.05;;;;;;;10.33;93.75;99718.67;1724173;80;25840;-73
2021/05/19 02:40:16;;;;;;;4.75;2.70;;;;;;;10.33;93.63;99722.59;1757766;80;25637;-73
2021/05/19 02:42:44;;;;;;;4.25;3.15;;;;;;;10.34;93.78;99726.01;1751576;80;25560;-71
2021/05/19 02:45:13;;;;;;;3.83;3.10;;;;;;;10.33;93.58;99721.78;1719190;80;26567;-70
2021/05/19 02:47:39;;;;;;;4.60;3.02;;;;;;;10.34;93.60;99721.63;1774054;79;25680;-72
2021/05/19 02:50:06;;;;;;;5.57;2.57;;;;;;;10.33;93.55;99727.81;1747349;80;25560;-71
2021/05/19 02:52:32;;;;;;;5.72;2.92;;;;;;;10.34;93.49;99732.07;1748499;80;25555;-71
2021/05/19 02:54:57;;;;;;;5.40;2.97;;;;;;;10.33;93.50;99730.43;1753429;80;25619;-71
2021/05/19 02:57:23;;;;;;;4.35;2.75;;;;;;;10.33;93.45;99723.90;1748049;80;34651;-71
2021/05/19 02:59:49;;;;;;;5.50;3.20;;;;;;;10.34;93.52;99726.01;1753493;80;31292;-73
2021/05/19 03:02:15;;;;;;;5.37;3.47;;;;;;;10.33;93.43;99725.70;1751869;80;25643;-73
2021/05/19 03:04:41;;;;;;;6.30;3.27;;;;;;;10.36;93.45;99729.27;1753419;80;27598;-72
2021/05/19 03:07:06;;;;;;;7.50;3.43;;;;;;;10.37;93.40;99730.91;1758795;80;25530;-71
2021/05/19 03:09:32;;;;;;;5.47;3.77;;;;;;;10.39;93.35;99730.20;1753574;80;32827;-71
2021/05/19 03:11:58;;;;;;;8.18;4.40;;;;;;;10.39;93.52;99725.81;1745360;80;31032;-71
2021/05/19 03:14:24;;;;;;;7.40;3.87;;;;;;;10.37;93.31;99730.91;1748708;80;26308;-72
2021/05/19 03:16:50;;;;;;;8.50;4.60;;;;;;;10.39;93.39;99728.43;1751000;80;27618;-71
2021/05/19 03:19:16;;;;;;;7.33;4.27;;;;;;;10.37;93.66;99728.29;1749292;80;25483;-73
2021/05/19 03:21:41;;;;;;;7.05;4.35;;;;;;;10.33;93.85;99734.34;1753869;80;32844;-71
2021/05/19 03:24:08;;;;;;;5.87;3.67;;;;;;;10.29;93.61;99723.95;1751266;79;30908;-73
2021/05/19 03:26:33;;;;;;;7.80;4.62;;;;;;;10.30;93.60;99728.17;1755093;80;25500;-71
2021/05/19 03:28:59;;;;;;;6.77;4.40;;;;;;;10.34;93.75;99727.31;1745053;80;26558;-71
2021/05/19 03:31:25;;;;;;;8.13;4.30;;;;;;;10.35;93.62;99730.27;1751868;80;26439;-73
2021/05/19 03:33:51;;;;;;;7.35;4.97;;;;;;;10.34;93.71;99737.77;1755076;79;34734;-74
2021/05/19 03:36:17;;;;;;;9.70;5.15;;;;;;;10.33;93.71;99733.04;1750322;80;31913;-73
2021/05/19 03:38:42;;;;;;;6.47;4.40;;;;;;;10.35;93.56;99736.29;1753408;80;25992;-73
2021/05/19 03:41:08;;;;;;;7.00;4.03;;;;;;;10.37;93.56;99738.73;1747210;80;27767;-73
2021/05/19 03:43:36;;;;;;;8.63;5.00;;;;;;;10.38;93.90;99737.23;1756307;80;26030;-73
2021/05/19 03:46:02;;;;;;;8.95;5.50;;;;;;;10.37;93.54;99740.85;1753347;80;25655;-73
2021/05/19 03:48:28;;;;;;;8.30;4.47;;;;;;;10.39;93.52;99748.49;1750891;80;25786;-73
2021/05/19 03:50:55;;;;;;;9.38;5.10;;;;;;;10.41;93.48;99745.21;1771893;79;28011;-73
2021/05/19 03:53:21;;;;;;;7.25;4.83;;;;;;;10.44;93.43;99750.88;1752982;80;25727;-74
2021/05/19 03:55:47;;;;;;;7.10;4.43;;;;;;;10.46;93.42;99747.30;1749907;80;25689;-74
2021/05/19 03:58:14;;;;;;;8.93;4.85;;;;;;;10.43;93.29;99747.97;1752761;80;25858;-74
2021/05/19 04:00:42;;;;;;;8.80;4.42;;;;;;;10.41;93.34;99752.55;1751015;80;25542;-73
2021/05/19 04:03:08;;;;;;;9.40;5.28;;;;;;;10.40;93.46;99753.55;1756908;80;25499;-73
2021/05/19 04:05:39;;;;;;;8.60;4.70;;;;;;;10.41;93.53;99755.16;1751000;80;25508;-73
2021/05/19 04:08:07;;;;;;;8.03;4.50;;;;;;;10.42;93.47;99759.89;1749699;80;25767;-74
2021/05/19 04:10:35;;;;;;;7.28;4.83;;;;;;;10.42;93.61;99759.89;1748121;80;25608;-72
2021/05/19 04:13:04;;;;;;;7.78;4.17;;;;;;;10.42;93.58;99764.64;1748465;80;25543;-72
2021/05/19 04:15:28;;;;;;;7.97;4.60;;;;;;;10.45;93.67;99763.48;1753075;80;26968;-71
2021/05/19 04:17:54;;;;;;;7.80;4.63;;;;;;;10.49;93.65;99765.23;1744603;80;26429;-71
2021/05/19 04:20:21;;;;;;;8.37;5.30;;;;;;;10.53;93.69;99762.55;1753106;80;25913;-71
2021/05/19 04:22:47;;;;;;;7.70;4.67;;;;;;;10.53;93.58;99766.48;1750816;80;25739;-72
2021/05/19 04:25:14;;;;;;;9.18;5.83;;;;;;;10.54;93.71;99772.03;1750214;80;25441;-71
2021/05/19 04:27:41;;;;;;;10.35;5.45;;;;;;;10.54;93.57;99772.84;1751078;80;26268;-72
2021/05/19 04:30:09;;;;;;;8.80;5.58;;;;;;;10.55;93.55;99774.45;1751255;80;25558;-73
2021/05/19 04:32:35;;;;;;;7.15;4.97;;;;;;;10.57;93.52;99775.09;1748647;80;25998;-73
2021/05/19 04:35:04;;;;;;;11.48;5.33;;;;;;;10.54;93.57;99776.77;1754171;80;25854;-71
2021/05/19 04:37:29;;;;;;;8.10;5.08;;;;;;;10.54;93.52;99771.53;1751231;80;25588;-71
2021/05/19 04:39:55;;;;;;;10.37;4.93;;;;;;;10.56;93.56;99777.91;1753507;80;26209;-71
2021/05/19 04:42:21;;;;;;;6.93;4.20;;;;;;;10.57;93.66;99786.05;1745828;80;29280;-71
2021/05/19 04:44:47;;;;;;;8.50;4.20;;;;;;;10.56;93.63;99780.52;1753276;80;25747;-71
2021/05/19 04:47:12;;;;;;;8.73;4.78;;;;;;;10.59;93.71;99784.88;1750160;80;36019;-71
2021/05/19 04:49:38;;;;;;;6.78;4.12;;;;;;;10.60;93.65;99783.88;1707630;82;31363;-71
2021/05/19 04:52:05;;;;;;;6.43;4.00;;;;;;;10.60;93.61;99785.19;1708321;81;26410;-72
2021/05/19 04:54:31;;;;;;;7.55;4.42;;;;;;;10.63;93.57;99787.44;1745494;80;25639;-71
2021/05/19 04:56:56;;;;;;;6.77;3.97;;;;;;;10.63;93.48;99787.94;1749084;80;26424;-71
2021/05/19 04:59:22;;;;;;;8.40;3.87;;;;;;;10.62;93.54;99789.74;1752277;80;35060;-74
2021/05/19 05:01:48;;;;;;;6.62;4.28;;;;;;;10.62;93.51;99787.63;1754090;80;31482;-73
2021/05/19 05:04:14;;;;;;;6.73;4.00;;;;;;;10.62;93.48;99792.36;1746852;79;25689;-73
2021/05/19 05:06:39;;;;;;;8.93;4.10;;;;;;;10.62;93.61;99794.97;1754350;80;28433;-73
2021/05/19 05:09:05;;;;;;;7.63;4.27;;;;;;;10.63;93.62;99800.50;1756192;80;25604;-73
2021/05/19 05:11:31;;;;;;;7.75;4.42;;;;;;;10.64;93.60;99806.06;1748394;80;35929;-74
2021/05/19 05:13:57;;;;;;;7.12;4.33;;;;;;;10.67;93.79;99808.81;1749772;80;31697;-71
2021/05/19 05:16:22;;;;;;;9.27;5.23;;;;;;;10.68;93.87;99810.42;1749724;80;25635;-71
2021/05/19 05:18:48;;;;;;;8.23;5.33;;;;;;;10.66;93.75;99816.32;1752767;80;28406;-70
2021/05/19 05:21:14;;;;;;;10.80;5.60;;;;;;;10.65;93.73;99818.63;1747508;80;25504;-72
2021/05/19 05:23:39;;;;;;;8.55;5.33;;;;;;;10.63;93.68;99816.18;1750521;80;33684;-71
2021/05/19 05:26:05;;;;;;;9.20;5.13;;;;;;;10.64;93.85;99817.02;1753003;80;32877;-72
2021/05/19 05:28:32;;;;;;;10.60;5.63;;;;;;;10.65;93.92;99818.63;1747283;80;25555;-71
2021/05/19 05:30:58;;;;;;;9.43;5.35;;;;;;;10.65;93.91;99819.94;1752784;79;25508;-73
2021/05/19 05:33:24;;;;;;;8.38;5.42;;;;;;;10.65;94.25;99823.86;1756264;80;26282;-72
2021/05/19 05:35:51;;;;;;;8.28;5.42;;;;;;;10.65;94.00;99823.86;1753083;80;26171;-74
2021/05/19 05:38:17;;;;;;;8.18;6.22;;;;;;;10.69;93.91;99829.53;1752818;80;25591;-72
2021/05/19 05:40:42;;;;;;;8.63;5.87;;;;;;;10.70;93.95;99825.45;1753176;79;25646;-73
2021/05/19 05:43:08;;;;;;;10.97;6.80;;;;;;;10.76;94.05;99827.84;1750878;79;28248;-73
2021/05/19 05:45:34;;;;;;;8.60;6.23;;;;;;;10.78;94.07;99832.39;1757283;80;26364;-73
2021/05/19 05:48:00;;;;;;;11.53;6.83;;;;;;;10.77;94.11;99835.48;1755845;80;35069;-72
2021/05/19 05:50:27;;;;;;;11.08;7.45;;;;;;;10.80;94.14;99831.70;1755024;80;25485;-72
2021/05/19 05:52:53;;;;;;;11.68;8.13;;;;;;;10.81;94.10;99839.88;1756990;79;25649;-71
2021/05/19 05:55:22;;;;;;;12.27;8.60;;;;;;;10.80;93.99;99842.16;1757487;80;28377;-72
2021/05/19 05:57:49;;;;;;;16.10;8.75;;;;;;;10.82;94.16;99848.03;1756604;80;25200;-72
2021/05/19 06:00:17;;;;;;;12.05;7.83;;;;;;;10.82;94.08;99845.41;1759061;80;25499;-71
2021/05/19 06:02:43;;;;;;;13.28;9.45;;;;;;;10.86;94.25;99847.50;1746728;80;26439;-71
2021/05/19 06:05:12;;;;;;;14.95;9.28;;;;;;;10.91;94.29;99843.02;1751544;80;25561;-71
2021/05/19 06:07:37;;;;;;;14.20;9.50;;;;;;;10.96;94.38;99846.41;1747484;80;25457;-71
2021/05/19 06:10:06;;;;;;;16.40;9.83;;;;;;;11.03;94.61;99844.70;1757981;80;25471;-74
2021/05/19 06:12:32;;;;;;;13.50;8.90;;;;;;;11.03;94.27;99838.17;1756198;80;25647;-72
2021/05/19 06:14:58;;;;;;;13.25;9.43;;;;;;;11.05;94.28;99848.77;1753705;80;32491;-74
2021/05/19 06:17:25;;;;;;;14.23;9.50;;;;;;;11.05;94.35;99851.38;1750271;80;25728;-74
2021/05/19 06:19:52;;;;;;;15.10;9.68;;;;;;;11.07;94.48;99851.98;1756256;80;25567;-72
2021/05/19 06:22:18;;;;;;;12.23;9.13;;;;;;;11.07;94.62;99855.11;1752224;80;25678;-71
2021/05/19 06:24:44;;;;;;;13.60;9.80;;;;;;;11.05;94.22;99854.00;1747380;80;25535;-71
2021/05/19 06:27:11;;;;;;;13.62;10.45;;;;;;;11.08;94.43;99856.75;1752326;80;25523;-72
2021/05/19 06:29:38;;;;;;;14.55;10.65;;;;;;;11.10;94.41;99856.05;1756029;80;25504;-71
2021/05/19 06:32:05;;;;;;;15.30;10.58;;;;;;;11.12;94.45;99859.30;1751419;80;25461;-71
2021/05/19 06:34:31;;;;;;;15.70;11.48;;;;;;;11.17;94.46;99849.61;1750157;80;25728;-72
2021/05/19 06:36:57;;;;;;;12.03;10.18;;;;;;;11.21;94.48;99855.63;1755608;80;35121;-71
2021/05/19 06:39:23;;;;;;;15.65;10.25;;;;;;;11.27;94.59;99861.42;1758007;80;32445;-71
2021/05/19 06:41:50;;;;;;;14.30;9.90;;;;;;;11.32;94.50;99858.24;1751383;80;25478;-71
2021/05/19 06:44:19;;;;;;;12.90;9.40;;;;;;;11.31;94.21;99865.79;1745784;80;25603;-71
2021/05/19 06:46:46;;;;;;;13.95;10.18;;;;;;;11.33;94.48;99869.05;1751413;80;26246;-73
2021/05/19 06:49:12;;;;;;;13.38;10.18;;;;;;;11.31;94.14;99863.98;1752021;80;25747;-73
2021/05/19 06:51:42;;;;;;;13.40;10.63;;;;;;;11.34;94.21;99865.42;1748224;80;25695;-73
2021/05/19 06:55:07;;;;;;;16.60;9.97;;;;;;;11.38;94.21;99865.89;1749766;80;25734;-72
2021/05/19 06:57:35;;;;;;;17.15;10.58;;;;;;;11.41;94.16;99861.59;1753365;80;25997;-72
2021/05/19 07:01:06;;;;;;;15.10;10.05;;;;;;;11.40;93.99;99866.50;1755192;80;25672;-70
2021/05/19 07:03:49;;;;;;;13.25;10.72;;;;;;;11.42;94.17;99868.44;1753926;80;25724;-73
2021/05/19 07:06:19;;;;;;;16.73;11.22;;;;;;;11.43;94.01;99869.58;1756999;80;25651;-72
2021/05/19 07:08:45;;;;;;;;;;;;;;;11.47;93.96;99871.33;1728995;80;25721;-73
2021/05/19 07:11:12;;;;;;;13.62;10.68;;;;;;;11.47;93.58;99866.90;1754862;80;25654;-73
2021/05/19 07:13:38;;;;;;;15.00;11.10;;;;;;;11.47;93.66;99864.28;1755629;80;25581;-74
2021/05/19 07:16:05;;;;;;;14.18;12.03;;;;;;;11.49;94.11;99862.80;1751470;80;34778;-73
2021/05/19 07:18:31;;;;;;;15.63;12.03;;;;;;;11.49;93.93;99866.73;1753231;80;26600;-74
2021/05/19 07:20:57;;;;;;;18.15;11.78;;;;;;;11.57;94.13;99865.31;1756692;80;25528;-71
2021/05/19 07:23:23;;;;;;;14.85;12.50;;;;;;;11.62;93.96;99864.27;1752800;80;25186;-72
2021/05/19 07:25:49;;;;;;;15.17;11.63;;;;;;;11.64;93.70;99864.07;1757011;80;26427;-73
2021/05/19 07:28:16;;;;;;;15.83;12.40;;;;;;;11.64;93.72;99860.95;1745004;80;26589;-71
2021/05/19 07:30:43;;;;;;;16.95;12.95;;;;;;;11.69;93.87;99861.21;1749840;80;25784;-73
2021/05/19 07:33:12;;;;;;;15.93;12.68;;;;;;;11.74;93.79;99858.86;1754589;80;25776;-72
2021/05/19 07:35:39;;;;;;;16.87;12.45;;;;;;;11.77;93.65;99858.48;1752321;80;25554;-73
2021/05/19 07:38:08;;;;;;;16.42;11.90;;;;;;;11.82;93.73;99862.37;1751997;80;25526;-73
2021/05/19 07:40:35;;;;;;;19.02;13.25;;;;;;;11.80;93.24;99859.11;1748837;80;25165;-72
2021/05/19 07:43:02;;;;;;;20.92;13.00;;;;;;;11.82;93.36;99858.44;1755793;80;25155;-71
2021/05/19 07:45:28;;;;;;;18.85;12.60;;;;;;;11.84;93.32;99864.28;1754125;80;25552;-72
2021/05/19 07:47:55;;;;;;;21.95;13.35;;;;;;;11.84;93.40;99857.73;1750906;80;25580;-74
2021/05/19 07:50:22;;;;;;;16.05;11.75;;;;;;;11.88;93.52;99863.77;1749937;80;25540;-73
2021/05/19 07:52:47;;;;;;;18.62;12.37;;;;;;;11.93;93.79;99861.41;1755817;80;25684;-73
2021/05/19 07:55:23;;;;;;;17.87;13.72;;;;;;;11.93;93.11;99858.78;1753070;80;32258;-73
2021/05/19 07:57:59;;;;;;;17.05;12.58;;;;;;;11.90;92.83;99863.09;1751312;80;26306;-73
2021/05/19 08:02:56;;;;;;;17.12;11.95;;;;;;;11.95;92.96;99872.51;1752564;80;25595;-73
2021/05/19 08:05:22;;;;;;;15.90;12.28;;;;;;;12.00;93.20;99871.94;1753022;80;34746;-73
2021/05/19 08:07:48;;;;;;;18.87;12.75;;;;;;;12.04;93.24;99878.44;1757215;80;25194;-71
2021/05/19 08:10:14;;;;;;;15.30;11.40;;;;;;;12.06;92.88;99871.69;1753446;80;25747;-71
2021/05/19 08:12:40;;;;;;;20.70;13.20;;;;;;;12.09;92.88;99876.08;1752913;80;31293;-71
2021/05/19 08:15:07;;;;;;;14.17;11.37;;;;;;;12.12;92.83;99873.08;1755693;80;28438;-71
2021/05/19 08:17:34;;;;;;;16.35;13.30;;;;;;;12.15;92.32;99878.44;1756108;80;25624;-71
2021/05/19 08:19:59;;;;;;;14.50;11.73;;;;;;;12.13;92.38;99871.26;1753796;80;25370;-71
2021/05/19 08:22:25;;;;;;;15.87;12.57;;;;;;;12.13;92.43;99872.06;1753427;80;25549;-71
2021/05/19 08:24:51;;;;;;;13.60;11.83;;;;;;;12.19;92.66;99877.05;1752423;80;30601;-71
2021/05/19 08:27:17;;;;;;;18.37;11.87;;;;;;;12.25;92.88;99878.11;1757841;80;30284;-72
2021/05/19 08:29:44;;;;;;;15.80;11.78;;;;;;;12.25;92.19;99880.26;1753890;80;26446;-73
2021/05/19 08:32:10;;;;;;;16.00;11.45;;;;;;;12.25;92.03;99884.66;1754168;80;25535;-72
2021/05/19 08:34:35;;;;;;;15.63;10.80;;;;;;;12.25;91.87;99884.66;1756214;80;25677;-73
2021/05/19 08:37:02;;;;;;;13.50;10.97;;;;;;;12.29;91.66;99887.23;1753378;80;31654;-72
2021/05/19 08:39:28;;;;;;;15.90;10.43;;;;;;;12.23;91.10;99887.48;1753326;80;25667;-72
2021/05/19 08:41:54;;;;;;;15.85;11.68;;;;;;;12.23;91.39;99890.61;1753011;80;34687;-74
2021/05/19 08:44:20;;;;;;;17.12;12.25;;;;;;;12.25;91.58;99891.21;1754448;80;32333;-73
2021/05/19 08:46:52;;;;;;;14.45;11.78;;;;;;;12.21;91.20;99890.28;1757855;80;25670;-72
2021/05/19 08:49:17;;;;;;;18.45;11.93;;;;;;;12.16;91.35;99887.41;1760060;80;25627;-72
2021/05/19 08:51:44;;;;;;;15.88;11.80;;;;;;;12.17;91.50;99889.55;1755004;80;25528;-73
2021/05/19 08:54:11;;;;;;;16.05;12.40;;;;;;;12.16;91.48;99899.20;1760266;80;25551;-72
2021/05/19 08:56:40;;;;;;;18.23;13.15;;;;;;;12.18;91.84;99894.59;1750566;80;26127;-74
2021/05/19 08:59:06;;;;;;;16.70;12.03;;;;;;;12.25;92.20;99899.08;1748113;80;25561;-72
2021/05/19 09:01:44;;;;;;;17.42;13.75;;;;;;;12.32;92.62;99895.52;1751681;80;25945;-73
2021/05/19 09:04:18;;;;;;;16.25;13.03;;;;;;;12.39;92.60;99899.02;1758830;80;25566;-74
2021/05/19 09:06:48;;;;;;;20.40;14.38;;;;;;;12.46;92.61;99893.83;1739531;80;25627;-75
2021/05/19 09:09:27;;;;;;;16.23;11.80;;;;;;;12.53;92.64;99888.66;1737982;80;33062;-73
2021/05/19 09:12:01;;;;;;;14.75;10.78;;;;;;;12.61;92.48;99892.45;1755090;80;25717;-73
2021/05/19 09:14:30;;;;;;;14.33;10.08;;;;;;;12.60;91.38;99897.37;1756349;80;25537;-74
2021/05/19 09:17:38;;;;;;;15.58;10.35;;;;;;;12.58;90.22;99905.44;1748643;80;32255;-74
2021/05/19 09:20:12;;;;;;;14.33;9.60;;;;;;;12.53;89.76;99894.70;1753453;80;25777;-74
2021/05/19 09:22:45;;;;;;;14.55;10.28;;;;;;;12.58;90.19;99902.02;1741847;80;25622;-73
2021/05/19 09:25:22;;;;;;;17.40;10.85;;;;;;;12.63;90.23;99894.36;1757309;80;25809;-73
2021/05/19 09:27:52;;;;;;;14.55;9.83;;;;;;;12.67;90.03;99895.63;1749947;80;25536;-74
2021/05/19 09:30:48;;;;;;;15.03;10.32;;;;;;;12.75;90.36;99898.10;1754856;80;32835;-74
2021/05/19 09:33:20;;;;;;;12.68;9.45;;;;;;;12.80;90.00;99898.34;1756102;80;25463;-73
2021/05/19 09:36:16;;;;;;;14.55;10.65;;;;;;;12.82;89.06;99895.04;1749448;80;25558;-73
2021/05/19 09:38:46;;;;;;;13.68;9.33;;;;;;;12.87;89.76;99895.25;1754894;80;26322;-75
2021/05/19 09:41:32;;;;;;;11.83;8.75;;;;;;;12.98;89.63;99895.73;1755500;80;25924;-74
2021/05/19 09:44:00;;;;;;;11.55;8.53;;;;;;;13.04;88.56;99897.58;1759769;79;25501;-74
2021/05/19 09:49:23;;;;;;;13.25;7.70;;;;;;;13.14;87.03;99890.69;1756043;80;25228;-74
2021/05/19 09:51:59;;;;;;;11.63;7.78;;;;;;;13.18;87.06;99895.36;1753764;80;25710;-73
2021/05/19 09:54:42;;;;;;;12.23;7.65;;;;;;;13.32;87.56;99896.27;1755224;80;25664;-73
2021/05/19 09:57:11;;;;;;;14.58;8.50;;;;;;;13.39;86.83;99896.30;1757762;80;25538;-74
2021/05/19 09:59:42;;;;;;;11.97;7.60;;;;;;;13.40;86.98;99893.48;1757873;80;25830;-73
2021/05/19 10:02:08;;;;;;;;;;;;;;;13.42;85.78;99895.90;1757506;80;25547;-73
2021/05/19 10:04:39;;;;;;;9.55;6.70;;;;;;;13.42;85.85;99899.36;1707674;82;26228;-73
2021/05/19 10:07:10;;;;;;;9.88;5.90;;;;;;;13.45;85.11;99902.91;1750102;80;25199;-73
2021/05/19 10:09:32;;;;;;;11.95;6.05;;;;;;;13.45;84.08;99892.41;1753600;79;26350;-75
2021/05/19 10:11:59;;;;;;;9.00;5.62;;;;;;;13.42;82.81;99899.36;1755250;80;34660;-74
2021/05/19 10:14:25;;;;;;;10.35;5.72;;;;;;;13.38;82.67;99903.36;1757025;80;25568;-75
2021/05/19 10:17:02;;;;;;;9.63;5.83;;;;;;;13.37;83.29;99892.56;1754904;80;25633;-73
2021/05/19 10:19:32;;;;;;;10.00;4.85;;;;;;;13.44;82.81;99899.15;1751440;80;25494;-75
2021/05/19 10:21:59;;;;;;;7.75;4.22;;;;;;;13.50;83.40;99898.36;1753686;80;25624;-74
2021/05/19 10:27:50;;;;;;;6.05;3.67;;;;;;;13.61;81.00;99899.11;1751996;80;25209;-73
2021/05/19 10:30:49;;;;;;;8.83;4.90;;;;;;;13.63;81.34;99903.67;1751600;80;25677;-75
2021/05/19 10:33:39;;;;;;;10.35;5.85;;;;;;;13.68;81.22;99899.95;1753258;80;25610;-74
2021/05/19 10:36:27;;;;;;;8.43;5.05;;;;;;;13.74;80.97;99904.92;1755043;80;25778;-74
2021/05/19 10:39:14;;;;;;;8.70;6.28;;;;;;;13.79;81.25;99901.72;1742923;80;25620;-73
2021/05/19 10:41:50;;;;;;;7.90;5.65;;;;;;;13.82;80.15;99898.70;1746975;80;26464;-74
2021/05/19 10:44:20;;;;;;;10.60;6.08;;;;;;;13.80;80.39;99907.27;1756751;79;26211;-74
2021/05/19 10:47:07;;;;;;;8.33;4.90;;;;;;;13.74;79.24;99900.48;1750327;80;25594;-75
2021/05/19 10:50:02;;;;;;;5.80;4.37;;;;;;;13.75;79.39;99904.74;1751980;80;25577;-74
2021/05/19 10:57:59;;;;;;;7.95;4.72;;;;;;;13.92;79.27;99902.56;1751008;80;26365;-74
2021/05/19 11:00:30;;;;;;;8.45;5.45;;;;;;;14.01;79.03;99898.45;1758167;80;25578;-73
2021/05/19 11:03:02;;;;;;;10.58;4.65;;;;;;;14.11;78.91;99909.39;1649478;84;25803;-74
2021/05/19 11:05:34;;;;;;;5.78;4.62;;;;;;;14.15;77.44;99904.83;1757477;80;25619;-73
2021/05/19 11:08:12;;;;;;;10.05;4.00;;;;;;;14.22;78.08;99908.80;1749611;80;25487;-73
2021/05/19 11:10:47;;;;;;;6.55;3.65;;;;;;;14.37;77.26;99909.92;1753019;80;25524;-74
2021/05/19 11:13:11;;;;;;;5.75;3.62;;;;;;;14.47;75.43;99912.16;1754758;79;25589;-73
2021/05/19 11:18:57;;;;;;;6.42;3.85;;;;;;;14.55;74.52;99905.42;1747172;80;25614;-73
2021/05/19 11:21:03;;;;;;;4.75;3.33;;;;;;;14.61;73.31;99911.98;1727787;80;25605;-72
2021/05/19 11:23:29;;;;;;;5.25;3.60;;;;;;;14.63;72.83;99903.91;1750034;80;25598;-73
2021/05/19 11:26:12;;;;;;;5.87;3.62;;;;;;;14.67;73.27;99901.67;1755671;80;25852;-74
2021/05/19 11:28:39;;;;;;;6.78;4.00;;;;;;;14.75;71.87;99901.47;1753570;80;25682;-74
2021/05/19 11:31:17;;;;;;;5.87;3.92;;;;;;;14.80;70.78;99902.98;1755420;80;25577;-73
2021/05/19 11:33:56;;;;;;;4.95;3.55;;;;;;;14.82;71.08;99904.40;1757259;80;25657;-75
2021/05/19 11:36:42;;;;;;;5.00;2.98;;;;;;;14.87;69.16;99896.70;1749852;80;25801;-75
2021/05/19 11:39:49;;;;;;;4.20;2.90;;;;;;;15.08;70.77;99884.30;1746507;80;25249;-75
2021/05/19 11:42:23;;;;;;;4.87;3.22;;;;;;;15.33;66.23;99896.28;1752626;79;25575;-75
2021/05/19 11:44:56;;;;;;;4.42;3.17;;;;;;;15.46;66.42;99888.85;1746868;80;25224;-75
2021/05/19 11:47:40;;;;;;;4.75;2.90;;;;;;;15.57;65.89;99893.98;1750861;80;26276;-72
2021/05/19 11:50:22;;;;;;;3.58;2.60;;;;;;;15.59;66.82;99895.39;1752991;79;25506;-75
2021/05/19 11:52:56;;;;;;;5.12;2.87;;;;;;;15.66;64.80;99891.39;1755532;80;25740;-74
2021/05/19 11:55:48;;;;;;;6.12;2.55;;;;;;;15.80;64.51;99894.32;1756878;80;25558;-72